sensor_id;sensor_type;location;lat;lon;timestamp;P1;durP1;ratioP1;P2;durP2;ratioP2
11568;SDS011;5840;46.894;15.542;2022-09-09T00:01:52;1.70;;;1.60;;
11568;SDS011;5840;46.894;15.542;2022-09-09T00:04:26;1.60;;;1.50;;
11568;SDS011;5840;46.894;15.542;2022-09-09T00:07:00;1.83;;;1.73;;
11568;SDS011;5840;46.894;15.542;2022-09-09T00:09:31;2.17;;;1.70;;
11568;SDS011;5840;46.894;15.542;2022-09-09T00:12:08;2.07;;;1.83;;
11568;SDS011;5840;46.894;15.542;2022-09-09T00:14:41;4.47;;;2.03;;
11568;SDS011;5840;46.894;15.542;2022-09-09T00:17:16;3.47;;;1.67;;
11568;SDS011;5840;46.894;15.542;2022-09-09T00:19:53;1.97;;;1.83;;
11568;SDS011;5840;46.894;15.542;2022-09-09T00:22:25;1.97;;;1.80;;
11568;SDS011;5840;46.894;15.542;2022-09-09T00:24:56;2.00;;;1.80;;
11568;SDS011;5840;46.894;15.542;2022-09-09T00:27:36;2.63;;;1.80;;
11568;SDS011;5840;46.894;15.542;2022-09-09T00:30:14;1.60;;;1.60;;
11568;SDS011;5840;46.894;15.542;2022-09-09T00:32:45;1.90;;;1.80;;
11568;SDS011;5840;46.894;15.542;2022-09-09T00:35:16;2.23;;;2.03;;
11568;SDS011;5840;46.894;15.542;2022-09-09T00:37:48;2.83;;;1.90;;
11568;SDS011;5840;46.894;15.542;2022-09-09T00:40:21;3.00;;;1.43;;
11568;SDS011;5840;46.894;15.542;2022-09-09T00:42:53;3.13;;;1.77;;
11568;SDS011;5840;46.894;15.542;2022-09-09T00:45:41;2.30;;;1.90;;
11568;SDS011;5840;46.894;15.542;2022-09-09T00:48:31;1.80;;;1.70;;
11568;SDS011;5840;46.894;15.542;2022-09-09T00:51:03;1.50;;;1.50;;
11568;SDS011;5840;46.894;15.542;2022-09-09T00:53:38;1.80;;;1.70;;
11568;SDS011;5840;46.894;15.542;2022-09-09T00:56:11;2.60;;;2.03;;
11568;SDS011;5840;46.894;15.542;2022-09-09T00:58:40;1.70;;;1.50;;
11568;SDS011;5840;46.894;15.542;2022-09-09T01:01:11;3.13;;;1.93;;
11568;SDS011;5840;46.894;15.542;2022-09-09T01:03:40;2.00;;;1.90;;
11568;SDS011;5840;46.894;15.542;2022-09-09T01:06:14;1.67;;;1.57;;
11568;SDS011;5840;46.894;15.542;2022-09-09T01:11:38;3.03;;;1.90;;
11568;SDS011;5840;46.894;15.542;2022-09-09T01:14:16;3.17;;;1.97;;
11568;SDS011;5840;46.894;15.542;2022-09-09T01:16:53;2.20;;;2.00;;
11568;SDS011;5840;46.894;15.542;2022-09-09T01:19:24;2.77;;;1.77;;
11568;SDS011;5840;46.894;15.542;2022-09-09T01:22:01;2.17;;;1.80;;
11568;SDS011;5840;46.894;15.542;2022-09-09T01:24:38;2.97;;;1.90;;
11568;SDS011;5840;46.894;15.542;2022-09-09T01:27:13;2.13;;;1.70;;
11568;SDS011;5840;46.894;15.542;2022-09-09T01:29:43;1.93;;;1.83;;
11568;SDS011;5840;46.894;15.542;2022-09-09T01:35:04;3.07;;;1.83;;
11568;SDS011;5840;46.894;15.542;2022-09-09T01:37:34;2.20;;;1.73;;
11568;SDS011;5840;46.894;15.542;2022-09-09T01:40:01;4.70;;;2.57;;
11568;SDS011;5840;46.894;15.542;2022-09-09T01:42:29;2.47;;;1.80;;
11568;SDS011;5840;46.894;15.542;2022-09-09T01:44:56;2.33;;;1.80;;
11568;SDS011;5840;46.894;15.542;2022-09-09T01:47:24;3.13;;;2.10;;
11568;SDS011;5840;46.894;15.542;2022-09-09T01:49:51;3.97;;;1.83;;
11568;SDS011;5840;46.894;15.542;2022-09-09T01:52:18;2.80;;;1.73;;
11568;SDS011;5840;46.894;15.542;2022-09-09T01:54:45;1.70;;;1.63;;
11568;SDS011;5840;46.894;15.542;2022-09-09T01:57:14;5.03;;;2.23;;
11568;SDS011;5840;46.894;15.542;2022-09-09T01:59:50;2.93;;;2.00;;
11568;SDS011;5840;46.894;15.542;2022-09-09T02:02:26;1.90;;;1.80;;
11568;SDS011;5840;46.894;15.542;2022-09-09T02:05:00;1.97;;;1.80;;
11568;SDS011;5840;46.894;15.542;2022-09-09T02:07:37;2.00;;;1.90;;
11568;SDS011;5840;46.894;15.542;2022-09-09T02:10:09;2.00;;;1.73;;
11568;SDS011;5840;46.894;15.542;2022-09-09T02:12:39;2.23;;;1.93;;
11568;SDS011;5840;46.894;15.542;2022-09-09T02:15:14;2.37;;;1.83;;
11568;SDS011;5840;46.894;15.542;2022-09-09T02:17:44;2.60;;;2.40;;
11568;SDS011;5840;46.894;15.542;2022-09-09T02:20:13;3.13;;;2.63;;
11568;SDS011;5840;46.894;15.542;2022-09-09T02:22:43;2.00;;;1.90;;
11568;SDS011;5840;46.894;15.542;2022-09-09T02:25:12;3.23;;;2.10;;
11568;SDS011;5840;46.894;15.542;2022-09-09T02:27:42;2.10;;;2.00;;
11568;SDS011;5840;46.894;15.542;2022-09-09T02:30:12;2.23;;;2.07;;
11568;SDS011;5840;46.894;15.542;2022-09-09T02:32:41;3.30;;;2.10;;
11568;SDS011;5840;46.894;15.542;2022-09-09T02:35:10;2.13;;;1.90;;
11568;SDS011;5840;46.894;15.542;2022-09-09T02:37:40;2.10;;;2.00;;
11568;SDS011;5840;46.894;15.542;2022-09-09T02:40:10;3.60;;;2.23;;
11568;SDS011;5840;46.894;15.542;2022-09-09T02:42:40;2.00;;;1.90;;
11568;SDS011;5840;46.894;15.542;2022-09-09T02:45:09;2.30;;;2.20;;
11568;SDS011;5840;46.894;15.542;2022-09-09T02:47:40;1.93;;;1.83;;
11568;SDS011;5840;46.894;15.542;2022-09-09T02:50:15;3.37;;;1.90;;
11568;SDS011;5840;46.894;15.542;2022-09-09T02:52:51;2.07;;;1.97;;
11568;SDS011;5840;46.894;15.542;2022-09-09T02:55:30;2.20;;;1.80;;
11568;SDS011;5840;46.894;15.542;2022-09-09T02:58:04;2.63;;;1.80;;
11568;SDS011;5840;46.894;15.542;2022-09-09T03:00:33;1.70;;;1.60;;
11568;SDS011;5840;46.894;15.542;2022-09-09T03:03:03;1.80;;;1.70;;
11568;SDS011;5840;46.894;15.542;2022-09-09T03:05:30;2.83;;;1.63;;
11568;SDS011;5840;46.894;15.542;2022-09-09T03:07:57;1.87;;;1.60;;
11568;SDS011;5840;46.894;15.542;2022-09-09T03:10:24;2.23;;;2.00;;
11568;SDS011;5840;46.894;15.542;2022-09-09T03:12:51;3.30;;;2.07;;
11568;SDS011;5840;46.894;15.542;2022-09-09T03:15:18;3.53;;;2.10;;
11568;SDS011;5840;46.894;15.542;2022-09-09T03:17:45;3.67;;;1.90;;
11568;SDS011;5840;46.894;15.542;2022-09-09T03:20:14;3.73;;;2.00;;
11568;SDS011;5840;46.894;15.542;2022-09-09T03:22:41;3.00;;;2.20;;
11568;SDS011;5840;46.894;15.542;2022-09-09T03:25:10;2.00;;;1.90;;
11568;SDS011;5840;46.894;15.542;2022-09-09T03:27:37;2.17;;;2.03;;
11568;SDS011;5840;46.894;15.542;2022-09-09T03:30:04;3.93;;;2.17;;
11568;SDS011;5840;46.894;15.542;2022-09-09T03:32:32;4.93;;;2.30;;
11568;SDS011;5840;46.894;15.542;2022-09-09T03:34:58;2.53;;;2.30;;
11568;SDS011;5840;46.894;15.542;2022-09-09T03:37:27;2.70;;;2.27;;
11568;SDS011;5840;46.894;15.542;2022-09-09T03:39:54;3.07;;;2.40;;
11568;SDS011;5840;46.894;15.542;2022-09-09T03:42:21;3.57;;;2.30;;
11568;SDS011;5840;46.894;15.542;2022-09-09T03:44:48;2.37;;;2.20;;
11568;SDS011;5840;46.894;15.542;2022-09-09T03:47:16;4.37;;;2.17;;
11568;SDS011;5840;46.894;15.542;2022-09-09T03:49:44;2.57;;;2.03;;
11568;SDS011;5840;46.894;15.542;2022-09-09T03:52:11;3.47;;;2.37;;
11568;SDS011;5840;46.894;15.542;2022-09-09T03:54:40;3.77;;;2.20;;
11568;SDS011;5840;46.894;15.542;2022-09-09T03:57:07;2.57;;;2.10;;
11568;SDS011;5840;46.894;15.542;2022-09-09T03:59:34;2.10;;;1.90;;
11568;SDS011;5840;46.894;15.542;2022-09-09T04:02:01;2.63;;;2.17;;
11568;SDS011;5840;46.894;15.542;2022-09-09T04:04:28;2.60;;;2.40;;
11568;SDS011;5840;46.894;15.542;2022-09-09T04:06:55;2.43;;;2.30;;
11568;SDS011;5840;46.894;15.542;2022-09-09T04:09:22;2.47;;;2.27;;
11568;SDS011;5840;46.894;15.542;2022-09-09T04:11:51;3.30;;;2.57;;
11568;SDS011;5840;46.894;15.542;2022-09-09T04:14:18;2.80;;;2.10;;
11568;SDS011;5840;46.894;15.542;2022-09-09T04:16:47;2.70;;;2.43;;
11568;SDS011;5840;46.894;15.542;2022-09-09T04:19:14;2.60;;;2.50;;
11568;SDS011;5840;46.894;15.542;2022-09-09T04:21:41;2.60;;;2.50;;
11568;SDS011;5840;46.894;15.542;2022-09-09T04:24:08;3.23;;;2.50;;
11568;SDS011;5840;46.894;15.542;2022-09-09T04:26:35;3.43;;;2.70;;
11568;SDS011;5840;46.894;15.542;2022-09-09T04:29:04;2.87;;;2.60;;
11568;SDS011;5840;46.894;15.542;2022-09-09T04:31:32;2.90;;;2.70;;
11568;SDS011;5840;46.894;15.542;2022-09-09T04:34:00;3.10;;;2.90;;
11568;SDS011;5840;46.894;15.542;2022-09-09T04:36:30;3.00;;;2.70;;
11568;SDS011;5840;46.894;15.542;2022-09-09T04:38:58;3.60;;;3.30;;
11568;SDS011;5840;46.894;15.542;2022-09-09T04:41:25;4.17;;;3.70;;
11568;SDS011;5840;46.894;15.542;2022-09-09T04:43:51;5.07;;;3.57;;
11568;SDS011;5840;46.894;15.542;2022-09-09T04:46:20;3.10;;;2.80;;
11568;SDS011;5840;46.894;15.542;2022-09-09T04:48:48;4.67;;;3.33;;
11568;SDS011;5840;46.894;15.542;2022-09-09T04:51:16;4.20;;;2.83;;
11568;SDS011;5840;46.894;15.542;2022-09-09T04:53:43;2.53;;;2.43;;
11568;SDS011;5840;46.894;15.542;2022-09-09T04:56:12;2.87;;;2.67;;
11568;SDS011;5840;46.894;15.542;2022-09-09T04:58:40;2.80;;;2.60;;
11568;SDS011;5840;46.894;15.542;2022-09-09T05:01:08;2.87;;;2.70;;
11568;SDS011;5840;46.894;15.542;2022-09-09T05:03:37;2.53;;;2.40;;
11568;SDS011;5840;46.894;15.542;2022-09-09T05:06:05;3.73;;;3.07;;
11568;SDS011;5840;46.894;15.542;2022-09-09T05:08:34;3.27;;;2.77;;
11568;SDS011;5840;46.894;15.542;2022-09-09T05:11:02;3.40;;;3.10;;
11568;SDS011;5840;46.894;15.542;2022-09-09T05:13:29;3.90;;;3.03;;
11568;SDS011;5840;46.894;15.542;2022-09-09T05:15:57;4.03;;;3.00;;
11568;SDS011;5840;46.894;15.542;2022-09-09T05:18:24;4.17;;;3.00;;
11568;SDS011;5840;46.894;15.542;2022-09-09T05:20:56;3.30;;;3.10;;
11568;SDS011;5840;46.894;15.542;2022-09-09T05:23:25;3.40;;;3.10;;
11568;SDS011;5840;46.894;15.542;2022-09-09T05:25:56;3.63;;;3.10;;
11568;SDS011;5840;46.894;15.542;2022-09-09T05:28:23;3.73;;;3.43;;
11568;SDS011;5840;46.894;15.542;2022-09-09T05:30:57;3.67;;;3.37;;
11568;SDS011;5840;46.894;15.542;2022-09-09T05:33:25;3.50;;;3.10;;
11568;SDS011;5840;46.894;15.542;2022-09-09T05:36:01;3.07;;;2.77;;
11568;SDS011;5840;46.894;15.542;2022-09-09T05:38:30;3.20;;;2.90;;
11568;SDS011;5840;46.894;15.542;2022-09-09T05:40:58;3.47;;;3.10;;
11568;SDS011;5840;46.894;15.542;2022-09-09T05:43:25;3.20;;;2.47;;
11568;SDS011;5840;46.894;15.542;2022-09-09T05:46:00;5.67;;;3.37;;
11568;SDS011;5840;46.894;15.542;2022-09-09T05:48:29;3.87;;;3.40;;
11568;SDS011;5840;46.894;15.542;2022-09-09T05:50:57;4.33;;;3.37;;
11568;SDS011;5840;46.894;15.542;2022-09-09T05:53:25;3.00;;;2.80;;
11568;SDS011;5840;46.894;15.542;2022-09-09T05:55:59;3.27;;;3.03;;
11568;SDS011;5840;46.894;15.542;2022-09-09T05:58:28;7.80;;;4.10;;
11568;SDS011;5840;46.894;15.542;2022-09-09T06:01:02;4.23;;;3.93;;
11568;SDS011;5840;46.894;15.542;2022-09-09T06:03:31;4.37;;;4.07;;
11568;SDS011;5840;46.894;15.542;2022-09-09T06:05:59;4.43;;;3.90;;
11568;SDS011;5840;46.894;15.542;2022-09-09T06:08:28;4.03;;;3.67;;
11568;SDS011;5840;46.894;15.542;2022-09-09T06:11:00;5.00;;;3.60;;
11568;SDS011;5840;46.894;15.542;2022-09-09T06:13:29;4.73;;;3.53;;
11568;SDS011;5840;46.894;15.542;2022-09-09T06:15:56;4.73;;;4.30;;
11568;SDS011;5840;46.894;15.542;2022-09-09T06:18:23;4.40;;;4.00;;
11568;SDS011;5840;46.894;15.542;2022-09-09T06:20:54;5.50;;;4.33;;
11568;SDS011;5840;46.894;15.542;2022-09-09T06:23:23;4.60;;;4.17;;
11568;SDS011;5840;46.894;15.542;2022-09-09T06:25:51;4.13;;;3.80;;
11568;SDS011;5840;46.894;15.542;2022-09-09T06:28:26;4.73;;;4.27;;
11568;SDS011;5840;46.894;15.542;2022-09-09T06:30:56;4.20;;;3.80;;
11568;SDS011;5840;46.894;15.542;2022-09-09T06:33:24;3.63;;;3.40;;
11568;SDS011;5840;46.894;15.542;2022-09-09T06:35:51;3.90;;;3.60;;
11568;SDS011;5840;46.894;15.542;2022-09-09T06:38:19;6.13;;;4.40;;
11568;SDS011;5840;46.894;15.542;2022-09-09T06:40:51;5.80;;;3.90;;
11568;SDS011;5840;46.894;15.542;2022-09-09T06:43:19;5.67;;;3.73;;
11568;SDS011;5840;46.894;15.542;2022-09-09T06:45:52;4.07;;;3.67;;
11568;SDS011;5840;46.894;15.542;2022-09-09T06:48:20;4.70;;;3.97;;
11568;SDS011;5840;46.894;15.542;2022-09-09T06:50:47;4.00;;;3.60;;
11568;SDS011;5840;46.894;15.542;2022-09-09T06:53:15;4.30;;;3.07;;
11568;SDS011;5840;46.894;15.542;2022-09-09T06:55:44;4.10;;;3.50;;
11568;SDS011;5840;46.894;15.542;2022-09-09T06:58:12;4.90;;;3.33;;
11568;SDS011;5840;46.894;15.542;2022-09-09T07:00:39;4.53;;;3.40;;
11568;SDS011;5840;46.894;15.542;2022-09-09T07:03:07;4.00;;;3.60;;
11568;SDS011;5840;46.894;15.542;2022-09-09T07:05:35;3.87;;;3.43;;
11568;SDS011;5840;46.894;15.542;2022-09-09T07:08:02;3.90;;;3.33;;
11568;SDS011;5840;46.894;15.542;2022-09-09T07:10:30;3.87;;;3.13;;
11568;SDS011;5840;46.894;15.542;2022-09-09T07:12:59;3.37;;;3.07;;
11568;SDS011;5840;46.894;15.542;2022-09-09T07:15:28;3.47;;;3.27;;
11568;SDS011;5840;46.894;15.542;2022-09-09T07:17:55;3.53;;;3.30;;
11568;SDS011;5840;46.894;15.542;2022-09-09T07:20:26;3.33;;;2.93;;
11568;SDS011;5840;46.894;15.542;2022-09-09T07:22:54;3.37;;;3.13;;
11568;SDS011;5840;46.894;15.542;2022-09-09T07:25:23;4.03;;;3.70;;
11568;SDS011;5840;46.894;15.542;2022-09-09T07:27:51;4.00;;;3.70;;
11568;SDS011;5840;46.894;15.542;2022-09-09T07:30:18;3.67;;;3.47;;
11568;SDS011;5840;46.894;15.542;2022-09-09T07:32:46;5.77;;;3.60;;
11568;SDS011;5840;46.894;15.542;2022-09-09T07:35:14;5.83;;;3.80;;
11568;SDS011;5840;46.894;15.542;2022-09-09T07:37:40;4.30;;;3.97;;
11568;SDS011;5840;46.894;15.542;2022-09-09T07:40:08;3.97;;;3.67;;
11568;SDS011;5840;46.894;15.542;2022-09-09T07:42:35;4.00;;;3.70;;
11568;SDS011;5840;46.894;15.542;2022-09-09T07:45:02;4.60;;;4.17;;
11568;SDS011;5840;46.894;15.542;2022-09-09T07:47:30;4.07;;;3.77;;
11568;SDS011;5840;46.894;15.542;2022-09-09T07:49:59;3.90;;;3.60;;
11568;SDS011;5840;46.894;15.542;2022-09-09T07:52:26;3.80;;;3.50;;
11568;SDS011;5840;46.894;15.542;2022-09-09T07:54:53;4.93;;;4.53;;
11568;SDS011;5840;46.894;15.542;2022-09-09T07:57:21;4.73;;;3.80;;
11568;SDS011;5840;46.894;15.542;2022-09-09T07:59:48;3.60;;;3.30;;
11568;SDS011;5840;46.894;15.542;2022-09-09T08:02:15;4.90;;;3.50;;
11568;SDS011;5840;46.894;15.542;2022-09-09T08:04:42;4.93;;;3.97;;
11568;SDS011;5840;46.894;15.542;2022-09-09T08:07:10;4.13;;;3.83;;
11568;SDS011;5840;46.894;15.542;2022-09-09T08:09:38;3.80;;;3.60;;
11568;SDS011;5840;46.894;15.542;2022-09-09T08:12:05;4.57;;;3.50;;
11568;SDS011;5840;46.894;15.542;2022-09-09T08:14:34;5.27;;;3.80;;
11568;SDS011;5840;46.894;15.542;2022-09-09T08:17:00;4.10;;;3.60;;
11568;SDS011;5840;46.894;15.542;2022-09-09T08:19:28;3.77;;;3.57;;
11568;SDS011;5840;46.894;15.542;2022-09-09T08:21:55;3.47;;;3.27;;
11568;SDS011;5840;46.894;15.542;2022-09-09T08:24:23;3.97;;;3.37;;
11568;SDS011;5840;46.894;15.542;2022-09-09T08:26:51;3.53;;;3.30;;
11568;SDS011;5840;46.894;15.542;2022-09-09T08:29:18;3.30;;;3.10;;
11568;SDS011;5840;46.894;15.542;2022-09-09T08:31:46;3.60;;;2.90;;
11568;SDS011;5840;46.894;15.542;2022-09-09T08:34:14;3.60;;;3.30;;
11568;SDS011;5840;46.894;15.542;2022-09-09T08:36:41;3.20;;;2.90;;
11568;SDS011;5840;46.894;15.542;2022-09-09T08:39:10;4.13;;;2.93;;
11568;SDS011;5840;46.894;15.542;2022-09-09T08:41:51;3.17;;;2.80;;
11568;SDS011;5840;46.894;15.542;2022-09-09T08:44:28;3.00;;;2.70;;
11568;SDS011;5840;46.894;15.542;2022-09-09T08:47:07;4.53;;;2.80;;
11568;SDS011;5840;46.894;15.542;2022-09-09T08:49:49;3.70;;;2.70;;
11568;SDS011;5840;46.894;15.542;2022-09-09T08:52:36;2.43;;;2.30;;
11568;SDS011;5840;46.894;15.542;2022-09-09T08:55:12;3.43;;;2.40;;
11568;SDS011;5840;46.894;15.542;2022-09-09T08:57:50;6.03;;;2.60;;
11568;SDS011;5840;46.894;15.542;2022-09-09T09:00:19;2.40;;;2.20;;
11568;SDS011;5840;46.894;15.542;2022-09-09T09:02:48;2.40;;;2.30;;
11568;SDS011;5840;46.894;15.542;2022-09-09T09:05:28;2.23;;;2.13;;
11568;SDS011;5840;46.894;15.542;2022-09-09T09:08:03;2.83;;;2.63;;
11568;SDS011;5840;46.894;15.542;2022-09-09T09:10:42;2.87;;;2.63;;
11568;SDS011;5840;46.894;15.542;2022-09-09T09:13:15;2.70;;;2.20;;
11568;SDS011;5840;46.894;15.542;2022-09-09T09:15:46;2.30;;;2.10;;
11568;SDS011;5840;46.894;15.542;2022-09-09T09:18:18;2.87;;;2.60;;
11568;SDS011;5840;46.894;15.542;2022-09-09T09:20:50;2.67;;;2.37;;
11568;SDS011;5840;46.894;15.542;2022-09-09T09:23:24;2.67;;;2.10;;
11568;SDS011;5840;46.894;15.542;2022-09-09T09:25:56;2.60;;;2.37;;
11568;SDS011;5840;46.894;15.542;2022-09-09T09:28:29;2.73;;;2.23;;
11568;SDS011;5840;46.894;15.542;2022-09-09T09:30:59;3.63;;;2.33;;
11568;SDS011;5840;46.894;15.542;2022-09-09T09:33:31;2.70;;;2.30;;
11568;SDS011;5840;46.894;15.542;2022-09-09T09:36:05;2.40;;;2.30;;
11568;SDS011;5840;46.894;15.542;2022-09-09T09:38:33;2.67;;;2.47;;
11568;SDS011;5840;46.894;15.542;2022-09-09T09:41:02;2.67;;;2.20;;
11568;SDS011;5840;46.894;15.542;2022-09-09T09:43:31;2.40;;;2.00;;
11568;SDS011;5840;46.894;15.542;2022-09-09T09:45:59;2.03;;;1.70;;
11568;SDS011;5840;46.894;15.542;2022-09-09T09:48:27;2.43;;;2.10;;
11568;SDS011;5840;46.894;15.542;2022-09-09T09:50:54;2.50;;;2.30;;
11568;SDS011;5840;46.894;15.542;2022-09-09T09:53:25;2.03;;;1.93;;
11568;SDS011;5840;46.894;15.542;2022-09-09T09:55:54;2.30;;;2.10;;
11568;SDS011;5840;46.894;15.542;2022-09-09T09:58:24;2.20;;;2.00;;
11568;SDS011;5840;46.894;15.542;2022-09-09T10:00:54;2.63;;;2.20;;
11568;SDS011;5840;46.894;15.542;2022-09-09T10:03:22;2.47;;;2.03;;
11568;SDS011;5840;46.894;15.542;2022-09-09T10:05:51;2.77;;;2.10;;
11568;SDS011;5840;46.894;15.542;2022-09-09T10:08:18;2.30;;;2.10;;
11568;SDS011;5840;46.894;15.542;2022-09-09T10:10:49;1.90;;;1.80;;
11568;SDS011;5840;46.894;15.542;2022-09-09T10:13:26;1.80;;;1.70;;
11568;SDS011;5840;46.894;15.542;2022-09-09T10:16:03;1.97;;;1.87;;
11568;SDS011;5840;46.894;15.542;2022-09-09T10:18:42;2.20;;;2.00;;
11568;SDS011;5840;46.894;15.542;2022-09-09T10:21:27;2.20;;;1.90;;
11568;SDS011;5840;46.894;15.542;2022-09-09T10:27:01;3.70;;;2.00;;
11568;SDS011;5840;46.894;15.542;2022-09-09T10:29:47;2.07;;;1.90;;
11568;SDS011;5840;46.894;15.542;2022-09-09T10:32:39;2.60;;;2.30;;
11568;SDS011;5840;46.894;15.542;2022-09-09T10:35:12;4.70;;;2.30;;
11568;SDS011;5840;46.894;15.542;2022-09-09T10:40:43;2.07;;;1.87;;
11568;SDS011;5840;46.894;15.542;2022-09-09T10:43:36;2.20;;;2.00;;
11568;SDS011;5840;46.894;15.542;2022-09-09T10:46:15;3.17;;;2.30;;
11568;SDS011;5840;46.894;15.542;2022-09-09T10:49:01;2.00;;;1.90;;
11568;SDS011;5840;46.894;15.542;2022-09-09T10:51:43;3.17;;;2.17;;
11568;SDS011;5840;46.894;15.542;2022-09-09T10:54:20;1.83;;;1.73;;
11568;SDS011;5840;46.894;15.542;2022-09-09T10:57:00;2.97;;;2.10;;
11568;SDS011;5840;46.894;15.542;2022-09-09T10:59:33;2.60;;;2.37;;
11568;SDS011;5840;46.894;15.542;2022-09-09T11:02:03;2.20;;;2.00;;
11568;SDS011;5840;46.894;15.542;2022-09-09T11:04:42;4.50;;;2.57;;
11568;SDS011;5840;46.894;15.542;2022-09-09T11:07:17;2.77;;;2.00;;
11568;SDS011;5840;46.894;15.542;2022-09-09T11:09:52;2.47;;;2.30;;
11568;SDS011;5840;46.894;15.542;2022-09-09T11:12:29;2.70;;;2.33;;
11568;SDS011;5840;46.894;15.542;2022-09-09T11:14:59;2.20;;;2.00;;
11568;SDS011;5840;46.894;15.542;2022-09-09T11:17:33;2.57;;;2.37;;
11568;SDS011;5840;46.894;15.542;2022-09-09T11:20:10;2.70;;;2.33;;
11568;SDS011;5840;46.894;15.542;2022-09-09T11:22:39;3.67;;;2.20;;
11568;SDS011;5840;46.894;15.542;2022-09-09T11:25:14;3.47;;;2.10;;
11568;SDS011;5840;46.894;15.542;2022-09-09T11:27:49;3.47;;;2.10;;
11568;SDS011;5840;46.894;15.542;2022-09-09T11:30:29;2.30;;;2.10;;
11568;SDS011;5840;46.894;15.542;2022-09-09T11:36:12;2.87;;;2.50;;
11568;SDS011;5840;46.894;15.542;2022-09-09T11:38:50;2.37;;;2.13;;
11568;SDS011;5840;46.894;15.542;2022-09-09T11:41:18;2.40;;;2.20;;
11568;SDS011;5840;46.894;15.542;2022-09-09T11:43:47;2.50;;;2.00;;
11568;SDS011;5840;46.894;15.542;2022-09-09T11:46:16;2.97;;;2.20;;
11568;SDS011;5840;46.894;15.542;2022-09-09T11:48:57;3.07;;;2.20;;
11568;SDS011;5840;46.894;15.542;2022-09-09T11:51:27;3.10;;;2.40;;
11568;SDS011;5840;46.894;15.542;2022-09-09T11:53:56;3.40;;;3.07;;
11568;SDS011;5840;46.894;15.542;2022-09-09T11:56:27;3.97;;;3.03;;
11568;SDS011;5840;46.894;15.542;2022-09-09T11:58:57;3.50;;;2.40;;
11568;SDS011;5840;46.894;15.542;2022-09-09T12:01:36;3.33;;;2.27;;
11568;SDS011;5840;46.894;15.542;2022-09-09T12:04:10;3.10;;;2.10;;
11568;SDS011;5840;46.894;15.542;2022-09-09T12:07:04;1.90;;;1.90;;
11568;SDS011;5840;46.894;15.542;2022-09-09T12:09:55;2.17;;;2.07;;
11568;SDS011;5840;46.894;15.542;2022-09-09T12:12:27;2.47;;;2.00;;
11568;SDS011;5840;46.894;15.542;2022-09-09T12:14:56;3.13;;;2.00;;
11568;SDS011;5840;46.894;15.542;2022-09-09T12:17:27;2.00;;;1.90;;
11568;SDS011;5840;46.894;15.542;2022-09-09T12:20:03;2.30;;;2.00;;
11568;SDS011;5840;46.894;15.542;2022-09-09T12:22:40;2.77;;;2.40;;
11568;SDS011;5840;46.894;15.542;2022-09-09T12:25:18;2.03;;;1.93;;
11568;SDS011;5840;46.894;15.542;2022-09-09T12:28:00;3.63;;;2.27;;
11568;SDS011;5840;46.894;15.542;2022-09-09T12:30:32;1.80;;;1.70;;
11568;SDS011;5840;46.894;15.542;2022-09-09T12:33:08;2.17;;;2.07;;
11568;SDS011;5840;46.894;15.542;2022-09-09T12:35:38;3.10;;;2.20;;
11568;SDS011;5840;46.894;15.542;2022-09-09T12:38:10;2.50;;;2.30;;
11568;SDS011;5840;46.894;15.542;2022-09-09T12:40:53;2.30;;;2.20;;
11568;SDS011;5840;46.894;15.542;2022-09-09T12:43:21;2.77;;;2.07;;
11568;SDS011;5840;46.894;15.542;2022-09-09T12:45:49;2.43;;;2.30;;
11568;SDS011;5840;46.894;15.542;2022-09-09T12:48:22;2.67;;;2.13;;
11568;SDS011;5840;46.894;15.542;2022-09-09T12:50:55;2.40;;;2.20;;
11568;SDS011;5840;46.894;15.542;2022-09-09T12:53:24;2.10;;;2.00;;
11568;SDS011;5840;46.894;15.542;2022-09-09T12:55:56;3.00;;;2.73;;
11568;SDS011;5840;46.894;15.542;2022-09-09T12:58:24;2.77;;;2.57;;
11568;SDS011;5840;46.894;15.542;2022-09-09T13:00:57;2.17;;;2.03;;
11568;SDS011;5840;46.894;15.542;2022-09-09T13:03:25;2.07;;;1.97;;
11568;SDS011;5840;46.894;15.542;2022-09-09T13:05:53;1.97;;;1.87;;
11568;SDS011;5840;46.894;15.542;2022-09-09T13:08:25;2.30;;;2.10;;
11568;SDS011;5840;46.894;15.542;2022-09-09T13:10:53;2.63;;;2.27;;
11568;SDS011;5840;46.894;15.542;2022-09-09T13:13:23;2.50;;;2.30;;
11568;SDS011;5840;46.894;15.542;2022-09-09T13:15:56;2.33;;;2.13;;
11568;SDS011;5840;46.894;15.542;2022-09-09T13:18:25;2.30;;;2.10;;
11568;SDS011;5840;46.894;15.542;2022-09-09T13:20:55;2.30;;;2.13;;
11568;SDS011;5840;46.894;15.542;2022-09-09T13:23:26;2.30;;;2.10;;
11568;SDS011;5840;46.894;15.542;2022-09-09T13:25:55;2.47;;;2.27;;
11568;SDS011;5840;46.894;15.542;2022-09-09T13:28:23;2.23;;;2.13;;
11568;SDS011;5840;46.894;15.542;2022-09-09T13:30:58;4.13;;;2.43;;
11568;SDS011;5840;46.894;15.542;2022-09-09T13:33:30;2.53;;;2.10;;
11568;SDS011;5840;46.894;15.542;2022-09-09T13:35:59;3.07;;;2.27;;
11568;SDS011;5840;46.894;15.542;2022-09-09T13:38:31;2.30;;;2.10;;
11568;SDS011;5840;46.894;15.542;2022-09-09T13:41:02;3.30;;;2.17;;
11568;SDS011;5840;46.894;15.542;2022-09-09T13:43:31;2.93;;;2.33;;
11568;SDS011;5840;46.894;15.542;2022-09-09T13:46:03;2.70;;;2.50;;
11568;SDS011;5840;46.894;15.542;2022-09-09T13:48:32;2.70;;;2.50;;
11568;SDS011;5840;46.894;15.542;2022-09-09T13:50:59;2.37;;;2.20;;
11568;SDS011;5840;46.894;15.542;2022-09-09T13:53:28;2.40;;;2.30;;
11568;SDS011;5840;46.894;15.542;2022-09-09T13:55:57;2.63;;;2.43;;
11568;SDS011;5840;46.894;15.542;2022-09-09T13:58:25;2.30;;;2.20;;
11568;SDS011;5840;46.894;15.542;2022-09-09T14:00:52;2.40;;;2.20;;
11568;SDS011;5840;46.894;15.542;2022-09-09T14:03:19;2.73;;;2.30;;
11568;SDS011;5840;46.894;15.542;2022-09-09T14:05:47;2.60;;;2.40;;
11568;SDS011;5840;46.894;15.542;2022-09-09T14:08:20;2.83;;;2.57;;
11568;SDS011;5840;46.894;15.542;2022-09-09T14:10:50;2.63;;;2.20;;
11568;SDS011;5840;46.894;15.542;2022-09-09T14:13:18;2.17;;;2.07;;
11568;SDS011;5840;46.894;15.542;2022-09-09T14:15:47;3.23;;;2.47;;
11568;SDS011;5840;46.894;15.542;2022-09-09T14:18:15;3.63;;;2.37;;
11568;SDS011;5840;46.894;15.542;2022-09-09T14:20:43;2.80;;;2.60;;
11568;SDS011;5840;46.894;15.542;2022-09-09T14:23:10;2.30;;;2.10;;
11568;SDS011;5840;46.894;15.542;2022-09-09T14:25:41;2.33;;;2.23;;
11568;SDS011;5840;46.894;15.542;2022-09-09T14:28:09;2.23;;;2.13;;
11568;SDS011;5840;46.894;15.542;2022-09-09T14:30:39;2.60;;;2.50;;
11568;SDS011;5840;46.894;15.542;2022-09-09T14:33:09;2.63;;;2.40;;
11568;SDS011;5840;46.894;15.542;2022-09-09T14:35:38;2.73;;;2.53;;
11568;SDS011;5840;46.894;15.542;2022-09-09T14:38:06;2.90;;;2.70;;
11568;SDS011;5840;46.894;15.542;2022-09-09T14:40:34;2.90;;;2.70;;
11568;SDS011;5840;46.894;15.542;2022-09-09T14:43:01;3.30;;;3.00;;
11568;SDS011;5840;46.894;15.542;2022-09-09T14:45:28;5.10;;;3.83;;
11568;SDS011;5840;46.894;15.542;2022-09-09T14:47:57;3.13;;;2.93;;
11568;SDS011;5840;46.894;15.542;2022-09-09T14:50:25;4.40;;;2.67;;
11568;SDS011;5840;46.894;15.542;2022-09-09T14:52:52;2.90;;;2.70;;
11568;SDS011;5840;46.894;15.542;2022-09-09T14:55:18;2.87;;;2.67;;
11568;SDS011;5840;46.894;15.542;2022-09-09T14:57:46;2.80;;;2.60;;
11568;SDS011;5840;46.894;15.542;2022-09-09T15:00:13;3.20;;;2.90;;
11568;SDS011;5840;46.894;15.542;2022-09-09T15:02:41;3.00;;;2.70;;
11568;SDS011;5840;46.894;15.542;2022-09-09T15:05:09;3.07;;;2.73;;
11568;SDS011;5840;46.894;15.542;2022-09-09T15:07:36;2.73;;;2.53;;
11568;SDS011;5840;46.894;15.542;2022-09-09T15:10:03;3.10;;;2.90;;
11568;SDS011;5840;46.894;15.542;2022-09-09T15:12:32;2.90;;;2.70;;
11568;SDS011;5840;46.894;15.542;2022-09-09T15:15:00;3.10;;;2.73;;
11568;SDS011;5840;46.894;15.542;2022-09-09T15:17:28;2.97;;;2.77;;
11568;SDS011;5840;46.894;15.542;2022-09-09T15:19:55;3.10;;;2.80;;
11568;SDS011;5840;46.894;15.542;2022-09-09T15:22:23;2.73;;;2.53;;
11568;SDS011;5840;46.894;15.542;2022-09-09T15:24:50;2.97;;;2.77;;